EDT,Max TemperatureF,Mean TemperatureF,Min TemperatureF,Max Dew PointF,MeanDew PointF,Min DewpointF,Max Humidity, Mean Humidity, Min Humidity, Max Sea Level PressureIn, Mean Sea Level PressureIn, Min Sea Level PressureIn, Max VisibilityMiles, Mean VisibilityMiles, Min VisibilityMiles, Max Wind SpeedMPH, Mean Wind SpeedMPH, Max Gust SpeedMPH,PrecipitationIn, CloudCover, Events, WindDirDegrees
2012-10-1,53,50,48,52,47,43,100,89,71,30.02,29.99,29.96,10,5,0,12,4,17,0.21,6,Rain,130
2012-10-2,64,58,51,64,60,52,100,100,100,30.11,30.02,29.96,10,1,0,12,7,18,0.46,8,Rain,161
2012-10-3,69,63,57,63,59,55,100,89,68,30.30,30.22,30.11,10,8,1,16,9,20,0.00,2,Rain,218
2012-10-4,64,60,55,61,52,32,100,77,30,30.34,30.31,30.28,10,6,0,16,9,22,0.00,4,Fog-Rain,274
2012-10-5,66,60,53,54,50,48,88,74,59,30.32,30.24,30.12,10,10,7,13,9,17,0.00,0,,255
2012-10-6,60,50,39,54,46,36,100,82,67,30.14,30.05,30.01,10,10,7,24,14,34,0.00,2,,276
2012-10-7,42,38,33,39,37,34,100,95,70,30.17,30.10,30.05,10,5,0,13,7,21,0.26,7,Fog-Rain-Snow,314
2012-10-8,37,35,33,36,34,32,100,96,87,30.25,30.19,30.16,10,6,0,12,5,,0.04,6,Fog-Rain-Snow,68
2012-10-9,48,40,33,45,41,34,100,94,81,30.19,30.15,30.09,10,8,0,7,2,,0.00,8,Fog,237
2012-10-10,51,42,32,45,41,32,100,88,71,30.15,30.05,30.01,10,9,0,24,15,37,0.00,6,Fog,262
2012-10-11,55,42,30,37,30,19,86,62,39,30.29,30.24,30.16,10,10,7,20,11,26,0.00,0,,263
2012-10-12,57,48,39,37,35,34,93,63,41,30.41,30.28,30.19,10,10,7,21,13,26,0.00,0,,295
2012-10-13,51,43,35,39,34,28,93,73,54,30.47,30.40,30.32,10,10,10,15,7,17,0.00,0,,154
2012-10-14,62,53,44,54,47,39,100,79,59,30.32,30.21,30.06,10,10,4,14,9,24,0.00,1,,197
2012-10-15,60,51,42,55,47,36,100,82,54,30.05,29.90,29.82,10,9,0,23,15,34,0.02,7,Rain,261
2012-10-16,57,47,37,36,34,30,93,62,36,29.98,29.95,29.90,10,8,2,21,12,30,0.00,2,,286
2012-10-17,57,49,41,43,36,28,87,60,36,30.04,29.99,29.95,10,10,10,13,7,21,0.00,0,,199
2012-10-18,53,48,42,54,48,43,100,98,87,29.95,29.89,29.84,10,4,0,18,10,26,0.19,6,Fog-Rain-Thunderstorm,172
2012-10-19,60,51,42,52,36,27,100,60,31,29.84,29.80,29.74,10,9,0,18,8,23,0.00,2,Fog,239
2012-10-20,46,42,39,36,34,32,87,75,61,29.99,29.86,29.78,10,10,10,18,12,29,0.00,4,,278
2012-10-21,53,45,37,37,34,32,87,68,47,30.21,30.13,30.01,10,10,10,16,10,22,0.00,2,,284
2012-10-22,66,55,44,45,41,34,76,60,46,30.29,30.26,30.20,10,8,3,13,10,9,0.00,0,,282
2012-10-23,69,60,51,52,48,45,77,62,46,30.28,30.25,30.21,10,5,3,12,6,17,0.00,0,,256
2012-10-24,69,61,53,50,47,45,77,60,46,30.31,30.27,30.25,10,10,10,12,7,,0.00,1,,261
2012-10-25,69,63,57,48,46,43,72,54,38,30.30,30.27,30.24,10,10,10,12,7,17,0.00,0,,159
2012-10-26,64,58,51,54,52,48,100,84,64,30.26,30.20,30.12,10,9,0,9,4,,0.00,5,Fog,132
2012-10-27,51,50,48,52,51,48,100,100,100,30.11,29.99,29.93,10,3,0,13,7,18,0.00,8,Fog-Rain,64
2012-10-28,48,42,35,48,43,36,100,95,76,29.93,29.81,29.74,10,6,0,18,10,24,0.09,8,Fog-Rain-Snow,349
2012-10-29,35,32,28,36,31,28,100,99,93,29.73,29.49,29.04,10,3,0,36,21,54,0.23,8,Rain-Snow,300
2012-10-30,28,26,24,28,27,25,100,98,93,29.46,29.22,29.01,7,3,1,41,33,54,0.01,8,Snow,279
2012-10-31,32,30,28,30,29,28,100,99,87,29.67,29.56,29.45,10,6,0,32,24,39,0.00,8,Fog-Snow,279